sensor_id;sensor_type;location;lat;lon;timestamp;P1;durP1;ratioP1;P2;durP2;ratioP2
45274;SDS011;31019;43.780;25.948;2024-02-23T00:01:12;31.50;;;29.70;;
45274;SDS011;31019;43.780;25.948;2024-02-23T00:03:39;26.52;;;24.83;;
45274;SDS011;31019;43.780;25.948;2024-02-23T00:06:06;27.48;;;25.77;;
45274;SDS011;31019;43.780;25.948;2024-02-23T00:08:35;27.73;;;26.02;;
45274;SDS011;31019;43.780;25.948;2024-02-23T00:11:03;31.25;;;29.45;;
45274;SDS011;31019;43.780;25.948;2024-02-23T00:13:31;32.85;;;31.05;;
45274;SDS011;31019;43.780;25.948;2024-02-23T00:15:58;31.30;;;29.40;;
45274;SDS011;31019;43.780;25.948;2024-02-23T00:18:26;30.85;;;28.85;;
45274;SDS011;31019;43.780;25.948;2024-02-23T00:20:53;31.17;;;29.08;;
45274;SDS011;31019;43.780;25.948;2024-02-23T00:23:21;33.40;;;31.40;;
45274;SDS011;31019;43.780;25.948;2024-02-23T00:25:49;30.30;;;28.48;;
45274;SDS011;31019;43.780;25.948;2024-02-23T00:28:17;30.17;;;28.27;;
45274;SDS011;31019;43.780;25.948;2024-02-23T00:30:44;31.42;;;29.52;;
45274;SDS011;31019;43.780;25.948;2024-02-23T00:33:11;31.13;;;29.00;;
45274;SDS011;31019;43.780;25.948;2024-02-23T00:35:38;29.45;;;27.65;;
45274;SDS011;31019;43.780;25.948;2024-02-23T00:38:05;30.10;;;28.17;;
45274;SDS011;31019;43.780;25.948;2024-02-23T00:40:32;34.08;;;32.00;;
45274;SDS011;31019;43.780;25.948;2024-02-23T00:43:01;30.83;;;28.83;;
45274;SDS011;31019;43.780;25.948;2024-02-23T00:45:28;30.48;;;28.58;;
45274;SDS011;31019;43.780;25.948;2024-02-23T00:47:55;31.63;;;29.73;;
45274;SDS011;31019;43.780;25.948;2024-02-23T00:50:22;32.55;;;30.65;;
45274;SDS011;31019;43.780;25.948;2024-02-23T00:52:51;28.02;;;26.33;;
45274;SDS011;31019;43.780;25.948;2024-02-23T00:55:18;27.80;;;26.08;;
45274;SDS011;31019;43.780;25.948;2024-02-23T00:57:45;30.58;;;28.77;;
45274;SDS011;31019;43.780;25.948;2024-02-23T01:00:14;29.85;;;28.15;;
45274;SDS011;31019;43.780;25.948;2024-02-23T01:02:41;32.30;;;30.30;;
45274;SDS011;31019;43.780;25.948;2024-02-23T01:05:08;31.23;;;29.33;;
45274;SDS011;31019;43.780;25.948;2024-02-23T01:07:35;27.45;;;25.75;;
45274;SDS011;31019;43.780;25.948;2024-02-23T01:10:03;28.10;;;26.40;;
45274;SDS011;31019;43.780;25.948;2024-02-23T01:12:30;27.60;;;25.90;;
45274;SDS011;31019;43.780;25.948;2024-02-23T01:14:57;29.80;;;27.90;;
45274;SDS011;31019;43.780;25.948;2024-02-23T01:17:25;29.83;;;27.92;;
45274;SDS011;31019;43.780;25.948;2024-02-23T01:19:52;30.95;;;28.98;;
45274;SDS011;31019;43.780;25.948;2024-02-23T01:22:19;32.33;;;30.13;;
45274;SDS011;31019;43.780;25.948;2024-02-23T01:24:46;30.90;;;29.00;;
45274;SDS011;31019;43.780;25.948;2024-02-23T01:27:12;31.33;;;29.33;;
45274;SDS011;31019;43.780;25.948;2024-02-23T01:29:39;32.00;;;30.10;;
45274;SDS011;31019;43.780;25.948;2024-02-23T01:32:06;30.08;;;28.17;;
45274;SDS011;31019;43.780;25.948;2024-02-23T01:34:35;31.30;;;29.30;;
45274;SDS011;31019;43.780;25.948;2024-02-23T01:37:02;30.52;;;28.63;;
45274;SDS011;31019;43.780;25.948;2024-02-23T01:39:29;30.05;;;28.25;;
45274;SDS011;31019;43.780;25.948;2024-02-23T01:41:56;27.92;;;26.23;;
45274;SDS011;31019;43.780;25.948;2024-02-23T01:44:23;28.73;;;27.02;;
45274;SDS011;31019;43.780;25.948;2024-02-23T01:46:51;32.75;;;30.75;;
45274;SDS011;31019;43.780;25.948;2024-02-23T01:49:17;31.90;;;30.00;;
45274;SDS011;31019;43.780;25.948;2024-02-23T01:51:48;30.20;;;28.30;;
45274;SDS011;31019;43.780;25.948;2024-02-23T01:54:16;32.95;;;30.95;;
45274;SDS011;31019;43.780;25.948;2024-02-23T01:56:43;37.60;;;35.40;;
45274;SDS011;31019;43.780;25.948;2024-02-23T01:59:10;31.90;;;30.00;;
45274;SDS011;31019;43.780;25.948;2024-02-23T02:01:38;30.13;;;28.33;;
45274;SDS011;31019;43.780;25.948;2024-02-23T02:04:05;30.38;;;28.58;;
45274;SDS011;31019;43.780;25.948;2024-02-23T02:06:32;29.52;;;27.73;;
45274;SDS011;31019;43.780;25.948;2024-02-23T02:09:01;32.33;;;30.35;;
45274;SDS011;31019;43.780;25.948;2024-02-23T02:11:28;36.95;;;34.47;;
45274;SDS011;31019;43.780;25.948;2024-02-23T02:13:55;32.75;;;30.70;;
45274;SDS011;31019;43.780;25.948;2024-02-23T02:16:22;31.05;;;29.10;;
45274;SDS011;31019;43.780;25.948;2024-02-23T02:18:49;32.38;;;30.33;;
45274;SDS011;31019;43.780;25.948;2024-02-23T02:21:16;35.22;;;33.22;;
45274;SDS011;31019;43.780;25.948;2024-02-23T02:23:43;31.67;;;29.88;;
45274;SDS011;31019;43.780;25.948;2024-02-23T02:26:12;31.60;;;29.70;;
45274;SDS011;31019;43.780;25.948;2024-02-23T02:28:39;36.00;;;33.80;;
45274;SDS011;31019;43.780;25.948;2024-02-23T02:31:06;35.65;;;33.65;;
45274;SDS011;31019;43.780;25.948;2024-02-23T02:33:33;30.02;;;28.30;;
45274;SDS011;31019;43.780;25.948;2024-02-23T02:36:00;27.88;;;26.27;;
45274;SDS011;31019;43.780;25.948;2024-02-23T02:38:30;31.52;;;29.73;;
45274;SDS011;31019;43.780;25.948;2024-02-23T02:40:58;36.15;;;34.17;;
45274;SDS011;31019;43.780;25.948;2024-02-23T02:43:27;29.58;;;27.88;;
45274;SDS011;31019;43.780;25.948;2024-02-23T02:45:54;28.92;;;27.30;;
45274;SDS011;31019;43.780;25.948;2024-02-23T02:48:22;32.38;;;30.52;;
45274;SDS011;31019;43.780;25.948;2024-02-23T02:50:49;32.22;;;30.42;;
45274;SDS011;31019;43.780;25.948;2024-02-23T02:53:16;30.58;;;28.83;;
45274;SDS011;31019;43.780;25.948;2024-02-23T02:55:43;27.77;;;26.17;;
45274;SDS011;31019;43.780;25.948;2024-02-23T02:58:10;31.25;;;29.45;;
45274;SDS011;31019;43.780;25.948;2024-02-23T03:00:39;29.05;;;27.35;;
45274;SDS011;31019;43.780;25.948;2024-02-23T03:03:06;31.30;;;29.50;;
45274;SDS011;31019;43.780;25.948;2024-02-23T03:05:33;32.33;;;30.63;;
45274;SDS011;31019;43.780;25.948;2024-02-23T03:08:00;28.83;;;27.33;;
45274;SDS011;31019;43.780;25.948;2024-02-23T03:10:27;31.70;;;30.00;;
45274;SDS011;31019;43.780;25.948;2024-02-23T03:12:54;31.38;;;29.67;;
45274;SDS011;31019;43.780;25.948;2024-02-23T03:15:21;29.60;;;27.85;;
45274;SDS011;31019;43.780;25.948;2024-02-23T03:17:49;30.20;;;28.60;;
45274;SDS011;31019;43.780;25.948;2024-02-23T03:20:16;36.30;;;34.40;;
45274;SDS011;31019;43.780;25.948;2024-02-23T03:22:43;34.63;;;32.83;;
45274;SDS011;31019;43.780;25.948;2024-02-23T03:25:10;32.60;;;30.90;;
45274;SDS011;31019;43.780;25.948;2024-02-23T03:27:42;30.55;;;29.00;;
45274;SDS011;31019;43.780;25.948;2024-02-23T03:30:09;35.88;;;34.05;;
45274;SDS011;31019;43.780;25.948;2024-02-23T03:32:37;31.27;;;29.67;;
45274;SDS011;31019;43.780;25.948;2024-02-23T03:35:06;34.03;;;32.22;;
45274;SDS011;31019;43.780;25.948;2024-02-23T03:37:34;32.88;;;31.08;;
45274;SDS011;31019;43.780;25.948;2024-02-23T03:40:01;31.42;;;29.52;;
45274;SDS011;31019;43.780;25.948;2024-02-23T03:42:30;30.00;;;28.38;;
45274;SDS011;31019;43.780;25.948;2024-02-23T03:44:56;30.25;;;28.55;;
45274;SDS011;31019;43.780;25.948;2024-02-23T03:47:23;33.60;;;31.60;;
45274;SDS011;31019;43.780;25.948;2024-02-23T03:49:50;31.48;;;29.58;;
45274;SDS011;31019;43.780;25.948;2024-02-23T03:52:19;31.15;;;29.35;;
45274;SDS011;31019;43.780;25.948;2024-02-23T03:54:46;31.33;;;29.42;;
45274;SDS011;31019;43.780;25.948;2024-02-23T03:57:13;32.85;;;30.95;;
45274;SDS011;31019;43.780;25.948;2024-02-23T03:59:41;31.98;;;30.08;;
45274;SDS011;31019;43.780;25.948;2024-02-23T04:02:18;32.10;;;29.88;;
45274;SDS011;31019;43.780;25.948;2024-02-23T04:04:45;28.98;;;27.38;;
45274;SDS011;31019;43.780;25.948;2024-02-23T04:07:12;31.65;;;29.95;;
45274;SDS011;31019;43.780;25.948;2024-02-23T04:09:41;30.13;;;28.30;;
45274;SDS011;31019;43.780;25.948;2024-02-23T04:12:07;31.92;;;30.02;;
45274;SDS011;31019;43.780;25.948;2024-02-23T04:14:34;27.73;;;25.98;;
45274;SDS011;31019;43.780;25.948;2024-02-23T04:17:08;30.10;;;28.33;;
45274;SDS011;31019;43.780;25.948;2024-02-23T04:19:36;30.13;;;28.33;;
45274;SDS011;31019;43.780;25.948;2024-02-23T04:22:03;29.08;;;27.08;;
45274;SDS011;31019;43.780;25.948;2024-02-23T04:24:35;28.85;;;26.90;;
45274;SDS011;31019;43.780;25.948;2024-02-23T04:27:07;29.42;;;27.63;;
45274;SDS011;31019;43.780;25.948;2024-02-23T04:29:34;29.70;;;27.67;;
45274;SDS011;31019;43.780;25.948;2024-02-23T04:32:02;29.00;;;27.20;;
45274;SDS011;31019;43.780;25.948;2024-02-23T04:34:29;32.38;;;29.67;;
45274;SDS011;31019;43.780;25.948;2024-02-23T04:36:56;29.92;;;28.02;;
45274;SDS011;31019;43.780;25.948;2024-02-23T04:39:23;29.35;;;27.45;;
45274;SDS011;31019;43.780;25.948;2024-02-23T04:41:52;29.30;;;27.60;;
45274;SDS011;31019;43.780;25.948;2024-02-23T04:44:21;29.77;;;27.88;;
45274;SDS011;31019;43.780;25.948;2024-02-23T04:46:48;31.75;;;29.20;;
45274;SDS011;31019;43.780;25.948;2024-02-23T04:49:15;36.22;;;33.53;;
45274;SDS011;31019;43.780;25.948;2024-02-23T04:51:42;36.83;;;34.53;;
45274;SDS011;31019;43.780;25.948;2024-02-23T04:54:09;34.97;;;32.67;;
45274;SDS011;31019;43.780;25.948;2024-02-23T04:56:36;35.63;;;33.40;;
45274;SDS011;31019;43.780;25.948;2024-02-23T04:59:02;42.13;;;37.92;;
45274;SDS011;31019;43.780;25.948;2024-02-23T05:01:34;35.50;;;32.00;;
45274;SDS011;31019;43.780;25.948;2024-02-23T05:04:04;29.50;;;26.77;;
45274;SDS011;31019;43.780;25.948;2024-02-23T05:06:31;34.55;;;31.80;;
45274;SDS011;31019;43.780;25.948;2024-02-23T05:08:58;61.10;;;55.90;;
45274;SDS011;31019;43.780;25.948;2024-02-23T05:11:25;37.50;;;34.50;;
45274;SDS011;31019;43.780;25.948;2024-02-23T05:13:52;35.85;;;33.45;;
45274;SDS011;31019;43.780;25.948;2024-02-23T05:16:19;37.53;;;35.20;;
45274;SDS011;31019;43.780;25.948;2024-02-23T05:18:47;27.90;;;26.20;;
45274;SDS011;31019;43.780;25.948;2024-02-23T05:21:15;24.23;;;22.73;;
45274;SDS011;31019;43.780;25.948;2024-02-23T05:23:42;25.60;;;24.00;;
45274;SDS011;31019;43.780;25.948;2024-02-23T05:26:11;25.38;;;23.77;;
45274;SDS011;31019;43.780;25.948;2024-02-23T05:28:38;26.58;;;24.88;;
45274;SDS011;31019;43.780;25.948;2024-02-23T05:31:05;24.58;;;23.08;;
45274;SDS011;31019;43.780;25.948;2024-02-23T05:33:32;25.48;;;23.95;;
45274;SDS011;31019;43.780;25.948;2024-02-23T05:36:05;25.65;;;24.10;;
45274;SDS011;31019;43.780;25.948;2024-02-23T05:38:32;28.65;;;26.95;;
45274;SDS011;31019;43.780;25.948;2024-02-23T05:40:59;27.02;;;25.38;;
45274;SDS011;31019;43.780;25.948;2024-02-23T05:43:26;28.23;;;26.33;;
45274;SDS011;31019;43.780;25.948;2024-02-23T05:45:53;28.33;;;26.55;;
45274;SDS011;31019;43.780;25.948;2024-02-23T05:48:22;27.55;;;25.75;;
45274;SDS011;31019;43.780;25.948;2024-02-23T05:50:49;28.02;;;26.33;;
45274;SDS011;31019;43.780;25.948;2024-02-23T05:53:17;27.73;;;26.02;;
45274;SDS011;31019;43.780;25.948;2024-02-23T05:55:44;27.25;;;25.55;;
45274;SDS011;31019;43.780;25.948;2024-02-23T05:58:12;26.80;;;25.15;;
45274;SDS011;31019;43.780;25.948;2024-02-23T06:00:41;26.70;;;25.10;;
45274;SDS011;31019;43.780;25.948;2024-02-23T06:03:08;26.73;;;24.98;;
45274;SDS011;31019;43.780;25.948;2024-02-23T06:05:35;27.00;;;25.25;;
45274;SDS011;31019;43.780;25.948;2024-02-23T06:08:03;28.23;;;26.60;;
45274;SDS011;31019;43.780;25.948;2024-02-23T06:10:31;28.20;;;26.60;;
45274;SDS011;31019;43.780;25.948;2024-02-23T06:12:58;30.55;;;28.67;;
45274;SDS011;31019;43.780;25.948;2024-02-23T06:15:25;28.75;;;27.15;;
45274;SDS011;31019;43.780;25.948;2024-02-23T06:17:52;28.30;;;26.35;;
45274;SDS011;31019;43.780;25.948;2024-02-23T06:20:19;28.88;;;27.17;;
45274;SDS011;31019;43.780;25.948;2024-02-23T06:22:46;31.17;;;29.00;;
45274;SDS011;31019;43.780;25.948;2024-02-23T06:25:14;30.52;;;27.77;;
45274;SDS011;31019;43.780;25.948;2024-02-23T06:27:42;29.45;;;27.75;;
45274;SDS011;31019;43.780;25.948;2024-02-23T06:30:09;29.35;;;27.65;;
45274;SDS011;31019;43.780;25.948;2024-02-23T06:32:36;32.67;;;30.77;;
45274;SDS011;31019;43.780;25.948;2024-02-23T06:35:04;30.60;;;28.90;;
45274;SDS011;31019;43.780;25.948;2024-02-23T06:37:32;30.92;;;29.13;;
45274;SDS011;31019;43.780;25.948;2024-02-23T06:39:59;32.42;;;30.52;;
45274;SDS011;31019;43.780;25.948;2024-02-23T06:42:26;32.85;;;31.02;;
45274;SDS011;31019;43.780;25.948;2024-02-23T06:44:54;40.25;;;35.90;;
45274;SDS011;31019;43.780;25.948;2024-02-23T06:47:21;34.67;;;32.13;;
45274;SDS011;31019;43.780;25.948;2024-02-23T06:49:48;30.25;;;28.45;;
45274;SDS011;31019;43.780;25.948;2024-02-23T06:52:15;33.10;;;31.13;;
45274;SDS011;31019;43.780;25.948;2024-02-23T06:54:43;32.85;;;30.95;;
45274;SDS011;31019;43.780;25.948;2024-02-23T06:57:10;32.70;;;30.88;;
45274;SDS011;31019;43.780;25.948;2024-02-23T06:59:37;33.30;;;31.50;;
45274;SDS011;31019;43.780;25.948;2024-02-23T07:02:05;32.70;;;30.77;;
45274;SDS011;31019;43.780;25.948;2024-02-23T07:04:32;33.50;;;31.70;;
45274;SDS011;31019;43.780;25.948;2024-02-23T07:06:59;45.33;;;42.63;;
45274;SDS011;31019;43.780;25.948;2024-02-23T07:09:31;35.25;;;33.15;;
45274;SDS011;31019;43.780;25.948;2024-02-23T07:11:58;36.65;;;33.38;;
45274;SDS011;31019;43.780;25.948;2024-02-23T07:14:25;34.42;;;32.42;;
45274;SDS011;31019;43.780;25.948;2024-02-23T07:16:52;33.13;;;31.13;;
45274;SDS011;31019;43.780;25.948;2024-02-23T07:19:20;34.72;;;32.83;;
45274;SDS011;31019;43.780;25.948;2024-02-23T07:21:50;31.75;;;29.95;;
45274;SDS011;31019;43.780;25.948;2024-02-23T07:24:17;34.95;;;32.85;;
45274;SDS011;31019;43.780;25.948;2024-02-23T07:26:44;45.30;;;42.92;;
45274;SDS011;31019;43.780;25.948;2024-02-23T07:29:11;43.47;;;40.95;;
45274;SDS011;31019;43.780;25.948;2024-02-23T07:31:38;38.67;;;36.38;;
45274;SDS011;31019;43.780;25.948;2024-02-23T07:34:05;35.10;;;32.80;;
45274;SDS011;31019;43.780;25.948;2024-02-23T07:36:33;33.55;;;31.55;;
45274;SDS011;31019;43.780;25.948;2024-02-23T07:39:00;32.60;;;30.60;;
45274;SDS011;31019;43.780;25.948;2024-02-23T07:41:27;33.00;;;31.00;;
45274;SDS011;31019;43.780;25.948;2024-02-23T07:43:54;37.38;;;35.13;;
45274;SDS011;31019;43.780;25.948;2024-02-23T07:46:21;49.88;;;47.08;;
45274;SDS011;31019;43.780;25.948;2024-02-23T07:48:48;51.58;;;48.75;;
45274;SDS011;31019;43.780;25.948;2024-02-23T07:51:15;53.40;;;50.40;;
45274;SDS011;31019;43.780;25.948;2024-02-23T07:53:43;38.38;;;35.92;;
45274;SDS011;31019;43.780;25.948;2024-02-23T07:56:10;37.88;;;35.50;;
45274;SDS011;31019;43.780;25.948;2024-02-23T07:58:37;46.92;;;43.92;;
45274;SDS011;31019;43.780;25.948;2024-02-23T08:01:06;58.28;;;55.08;;
45274;SDS011;31019;43.780;25.948;2024-02-23T08:03:33;59.08;;;55.78;;
45274;SDS011;31019;43.780;25.948;2024-02-23T08:06:00;68.90;;;65.20;;
45274;SDS011;31019;43.780;25.948;2024-02-23T08:08:27;85.88;;;81.30;;
45274;SDS011;31019;43.780;25.948;2024-02-23T08:10:55;78.75;;;74.55;;
45274;SDS011;31019;43.780;25.948;2024-02-23T08:13:22;47.83;;;44.67;;
45274;SDS011;31019;43.780;25.948;2024-02-23T08:15:49;39.15;;;36.75;;
45274;SDS011;31019;43.780;25.948;2024-02-23T08:18:16;77.07;;;72.90;;
45274;SDS011;31019;43.780;25.948;2024-02-23T08:20:42;75.93;;;71.65;;
45274;SDS011;31019;43.780;25.948;2024-02-23T08:23:11;67.45;;;63.40;;
45274;SDS011;31019;43.780;25.948;2024-02-23T08:25:38;68.45;;;64.55;;
45274;SDS011;31019;43.780;25.948;2024-02-23T08:28:08;65.35;;;61.53;;
45274;SDS011;31019;43.780;25.948;2024-02-23T08:30:35;57.78;;;54.58;;
45274;SDS011;31019;43.780;25.948;2024-02-23T08:33:02;72.40;;;68.40;;
45274;SDS011;31019;43.780;25.948;2024-02-23T08:35:30;76.05;;;71.95;;
45274;SDS011;31019;43.780;25.948;2024-02-23T08:37:58;40.85;;;38.25;;
45274;SDS011;31019;43.780;25.948;2024-02-23T08:40:25;70.38;;;66.38;;
45274;SDS011;31019;43.780;25.948;2024-02-23T08:42:52;43.55;;;40.65;;
45274;SDS011;31019;43.780;25.948;2024-02-23T08:45:20;57.17;;;53.85;;
45274;SDS011;31019;43.780;25.948;2024-02-23T08:47:47;43.45;;;40.75;;
45274;SDS011;31019;43.780;25.948;2024-02-23T08:50:14;82.82;;;78.43;;
45274;SDS011;31019;43.780;25.948;2024-02-23T08:52:41;90.63;;;85.93;;
45274;SDS011;31019;43.780;25.948;2024-02-23T08:55:08;73.88;;;69.88;;
45274;SDS011;31019;43.780;25.948;2024-02-23T08:57:37;75.22;;;70.63;;
45274;SDS011;31019;43.780;25.948;2024-02-23T09:00:05;72.68;;;68.78;;
45274;SDS011;31019;43.780;25.948;2024-02-23T09:02:34;46.03;;;43.13;;
45274;SDS011;31019;43.780;25.948;2024-02-23T09:05:03;71.22;;;67.22;;
45274;SDS011;31019;43.780;25.948;2024-02-23T09:07:31;41.58;;;38.70;;
45274;SDS011;31019;43.780;25.948;2024-02-23T09:09:57;64.25;;;60.45;;
45274;SDS011;31019;43.780;25.948;2024-02-23T09:12:24;58.33;;;54.83;;
45274;SDS011;31019;43.780;25.948;2024-02-23T09:14:52;57.97;;;54.67;;
45274;SDS011;31019;43.780;25.948;2024-02-23T09:17:19;39.35;;;36.95;;
45274;SDS011;31019;43.780;25.948;2024-02-23T09:19:47;40.47;;;37.88;;
45274;SDS011;31019;43.780;25.948;2024-02-23T09:22:14;39.88;;;37.38;;
45274;SDS011;31019;43.780;25.948;2024-02-23T09:24:41;37.72;;;35.35;;
45274;SDS011;31019;43.780;25.948;2024-02-23T09:27:09;36.58;;;34.17;;
45274;SDS011;31019;43.780;25.948;2024-02-23T09:29:40;40.83;;;38.22;;
45274;SDS011;31019;43.780;25.948;2024-02-23T09:32:07;57.65;;;54.35;;
45274;SDS011;31019;43.780;25.948;2024-02-23T09:34:34;59.85;;;56.40;;
45274;SDS011;31019;43.780;25.948;2024-02-23T09:37:02;62.80;;;59.38;;
45274;SDS011;31019;43.780;25.948;2024-02-23T09:39:29;59.72;;;56.13;;
45274;SDS011;31019;43.780;25.948;2024-02-23T09:41:56;63.90;;;60.10;;
45274;SDS011;31019;43.780;25.948;2024-02-23T09:44:23;61.75;;;58.35;;
45274;SDS011;31019;43.780;25.948;2024-02-23T09:46:52;62.15;;;58.70;;
45274;SDS011;31019;43.780;25.948;2024-02-23T09:49:20;62.28;;;58.88;;
45274;SDS011;31019;43.780;25.948;2024-02-23T09:51:47;61.90;;;58.50;;
45274;SDS011;31019;43.780;25.948;2024-02-23T09:54:16;64.45;;;60.90;;
45274;SDS011;31019;43.780;25.948;2024-02-23T09:56:43;61.65;;;58.25;;
45274;SDS011;31019;43.780;25.948;2024-02-23T09:59:10;60.67;;;57.28;;
45274;SDS011;31019;43.780;25.948;2024-02-23T10:01:39;59.35;;;55.95;;
45274;SDS011;31019;43.780;25.948;2024-02-23T10:04:06;61.97;;;58.47;;
45274;SDS011;31019;43.780;25.948;2024-02-23T10:06:33;61.63;;;58.13;;
45274;SDS011;31019;43.780;25.948;2024-02-23T10:09:00;62.03;;;58.53;;
45274;SDS011;31019;43.780;25.948;2024-02-23T10:11:30;63.95;;;60.35;;
45274;SDS011;31019;43.780;25.948;2024-02-23T10:13:57;61.63;;;58.03;;
45274;SDS011;31019;43.780;25.948;2024-02-23T10:16:24;62.83;;;59.33;;
45274;SDS011;31019;43.780;25.948;2024-02-23T10:18:51;71.63;;;67.82;;
45274;SDS011;31019;43.780;25.948;2024-02-23T10:21:18;69.95;;;65.95;;
45274;SDS011;31019;43.780;25.948;2024-02-23T10:23:45;62.38;;;58.88;;
45274;SDS011;31019;43.780;25.948;2024-02-23T10:26:12;59.63;;;56.13;;
45274;SDS011;31019;43.780;25.948;2024-02-23T10:28:45;64.00;;;60.20;;
45274;SDS011;31019;43.780;25.948;2024-02-23T10:31:12;64.93;;;61.03;;
45274;SDS011;31019;43.780;25.948;2024-02-23T10:33:39;67.35;;;63.45;;
45274;SDS011;31019;43.780;25.948;2024-02-23T10:36:10;61.53;;;57.92;;
45274;SDS011;31019;43.780;25.948;2024-02-23T10:38:41;63.40;;;59.70;;
45274;SDS011;31019;43.780;25.948;2024-02-23T10:41:12;65.50;;;61.80;;
45274;SDS011;31019;43.780;25.948;2024-02-23T10:43:41;62.90;;;59.30;;
45274;SDS011;31019;43.780;25.948;2024-02-23T10:46:15;61.17;;;57.67;;
45274;SDS011;31019;43.780;25.948;2024-02-23T10:48:42;64.93;;;61.22;;
45274;SDS011;31019;43.780;25.948;2024-02-23T10:51:12;65.38;;;61.58;;
45274;SDS011;31019;43.780;25.948;2024-02-23T10:53:40;64.43;;;60.53;;
45274;SDS011;31019;43.780;25.948;2024-02-23T10:56:07;61.13;;;57.42;;
45274;SDS011;31019;43.780;25.948;2024-02-23T10:58:36;64.82;;;61.05;;
45274;SDS011;31019;43.780;25.948;2024-02-23T11:01:03;66.43;;;62.60;;
45274;SDS011;31019;43.780;25.948;2024-02-23T11:03:35;72.57;;;68.47;;
45274;SDS011;31019;43.780;25.948;2024-02-23T11:06:05;64.20;;;60.33;;
45274;SDS011;31019;43.780;25.948;2024-02-23T11:08:33;63.40;;;59.63;;
45274;SDS011;31019;43.780;25.948;2024-02-23T11:11:07;65.20;;;61.33;;
45274;SDS011;31019;43.780;25.948;2024-02-23T11:16:01;65.35;;;61.63;;
45274;SDS011;31019;43.780;25.948;2024-02-23T11:18:29;62.83;;;59.03;;
45274;SDS011;31019;43.780;25.948;2024-02-23T11:21:00;68.78;;;64.78;;
45274;SDS011;31019;43.780;25.948;2024-02-23T11:23:38;72.07;;;67.78;;
45274;SDS011;31019;43.780;25.948;2024-02-23T11:26:06;65.75;;;61.75;;
45274;SDS011;31019;43.780;25.948;2024-02-23T11:28:41;65.97;;;61.80;;
45274;SDS011;31019;43.780;25.948;2024-02-23T11:31:13;68.63;;;64.63;;
45274;SDS011;31019;43.780;25.948;2024-02-23T11:33:47;63.80;;;60.10;;
45274;SDS011;31019;43.780;25.948;2024-02-23T11:36:21;62.47;;;58.85;;
45274;SDS011;31019;43.780;25.948;2024-02-23T11:38:48;67.28;;;63.47;;
45274;SDS011;31019;43.780;25.948;2024-02-23T11:41:19;70.63;;;66.70;;
45274;SDS011;31019;43.780;25.948;2024-02-23T11:43:47;67.97;;;64.07;;
45274;SDS011;31019;43.780;25.948;2024-02-23T11:46:14;68.97;;;64.90;;
45274;SDS011;31019;43.780;25.948;2024-02-23T11:48:42;64.80;;;61.10;;
45274;SDS011;31019;43.780;25.948;2024-02-23T11:51:09;67.40;;;63.30;;
45274;SDS011;31019;43.780;25.948;2024-02-23T11:53:38;64.82;;;60.92;;
45274;SDS011;31019;43.780;25.948;2024-02-23T11:56:05;64.05;;;60.17;;
45274;SDS011;31019;43.780;25.948;2024-02-23T11:58:32;65.65;;;61.65;;
45274;SDS011;31019;43.780;25.948;2024-02-23T12:01:00;66.28;;;62.17;;
45274;SDS011;31019;43.780;25.948;2024-02-23T12:03:28;69.05;;;64.95;;
45274;SDS011;31019;43.780;25.948;2024-02-23T12:05:55;73.18;;;68.97;;
45274;SDS011;31019;43.780;25.948;2024-02-23T12:08:23;67.28;;;63.28;;
45274;SDS011;31019;43.780;25.948;2024-02-23T12:10:53;67.28;;;63.38;;
45274;SDS011;31019;43.780;25.948;2024-02-23T12:13:21;67.22;;;63.42;;
45274;SDS011;31019;43.780;25.948;2024-02-23T12:15:48;70.53;;;66.07;;
45274;SDS011;31019;43.780;25.948;2024-02-23T12:18:18;64.47;;;60.72;;
45274;SDS011;31019;43.780;25.948;2024-02-23T12:20:48;70.97;;;66.97;;
45274;SDS011;31019;43.780;25.948;2024-02-23T12:23:15;72.13;;;67.93;;
45274;SDS011;31019;43.780;25.948;2024-02-23T12:25:53;75.22;;;71.03;;
45274;SDS011;31019;43.780;25.948;2024-02-23T12:28:21;72.53;;;68.55;;
45274;SDS011;31019;43.780;25.948;2024-02-23T12:30:57;76.05;;;71.10;;
45274;SDS011;31019;43.780;25.948;2024-02-23T12:33:26;71.40;;;67.15;;
45274;SDS011;31019;43.780;25.948;2024-02-23T12:35:54;72.00;;;67.80;;
45274;SDS011;31019;43.780;25.948;2024-02-23T12:38:21;66.63;;;62.60;;
45274;SDS011;31019;43.780;25.948;2024-02-23T12:40:48;72.63;;;68.32;;
45274;SDS011;31019;43.780;25.948;2024-02-23T12:43:16;67.75;;;63.65;;
45274;SDS011;31019;43.780;25.948;2024-02-23T12:45:45;67.28;;;63.08;;
45274;SDS011;31019;43.780;25.948;2024-02-23T12:48:14;67.60;;;63.45;;
45274;SDS011;31019;43.780;25.948;2024-02-23T12:50:41;66.88;;;62.78;;
45274;SDS011;31019;43.780;25.948;2024-02-23T12:53:08;58.83;;;55.05;;
45274;SDS011;31019;43.780;25.948;2024-02-23T12:55:35;61.20;;;57.20;;
45274;SDS011;31019;43.780;25.948;2024-02-23T12:58:02;69.88;;;65.47;;
45274;SDS011;31019;43.780;25.948;2024-02-23T13:00:31;69.63;;;65.22;;
45274;SDS011;31019;43.780;25.948;2024-02-23T13:02:58;67.93;;;63.72;;
45274;SDS011;31019;43.780;25.948;2024-02-23T13:05:24;73.22;;;68.82;;
45274;SDS011;31019;43.780;25.948;2024-02-23T13:07:51;76.95;;;72.25;;
45274;SDS011;31019;43.780;25.948;2024-02-23T13:10:18;67.18;;;63.08;;
45274;SDS011;31019;43.780;25.948;2024-02-23T13:12:45;75.20;;;70.70;;
45274;SDS011;31019;43.780;25.948;2024-02-23T13:15:12;76.50;;;71.70;;
45274;SDS011;31019;43.780;25.948;2024-02-23T13:17:41;68.65;;;64.55;;
45274;SDS011;31019;43.780;25.948;2024-02-23T13:20:09;71.97;;;67.78;;
45274;SDS011;31019;43.780;25.948;2024-02-23T13:22:37;70.95;;;66.75;;
45274;SDS011;31019;43.780;25.948;2024-02-23T13:25:05;40.50;;;37.50;;
45274;SDS011;31019;43.780;25.948;2024-02-23T13:27:32;49.42;;;46.03;;
45274;SDS011;31019;43.780;25.948;2024-02-23T13:29:59;57.35;;;53.65;;
45274;SDS011;31019;43.780;25.948;2024-02-23T13:32:26;67.53;;;63.33;;
45274;SDS011;31019;43.780;25.948;2024-02-23T13:34:54;68.32;;;64.13;;
45274;SDS011;31019;43.780;25.948;2024-02-23T13:37:21;68.95;;;64.70;;
45274;SDS011;31019;43.780;25.948;2024-02-23T13:39:48;66.90;;;62.75;;
45274;SDS011;31019;43.780;25.948;2024-02-23T13:42:15;63.75;;;59.75;;
45274;SDS011;31019;43.780;25.948;2024-02-23T13:44:42;64.70;;;60.70;;
45274;SDS011;31019;43.780;25.948;2024-02-23T13:47:09;47.38;;;43.80;;
45274;SDS011;31019;43.780;25.948;2024-02-23T13:49:38;45.95;;;42.45;;
45274;SDS011;31019;43.780;25.948;2024-02-23T13:52:06;46.30;;;42.80;;
45274;SDS011;31019;43.780;25.948;2024-02-23T13:54:33;43.88;;;40.67;;
45274;SDS011;31019;43.780;25.948;2024-02-23T13:57:00;42.22;;;39.13;;
45274;SDS011;31019;43.780;25.948;2024-02-23T13:59:27;42.53;;;39.47;;
45274;SDS011;31019;43.780;25.948;2024-02-23T14:01:54;45.75;;;42.45;;
45274;SDS011;31019;43.780;25.948;2024-02-23T14:04:21;47.88;;;44.58;;
45274;SDS011;31019;43.780;25.948;2024-02-23T14:06:48;47.67;;;44.33;;
45274;SDS011;31019;43.780;25.948;2024-02-23T14:09:16;46.80;;;43.40;;
45274;SDS011;31019;43.780;25.948;2024-02-23T14:11:49;50.30;;;46.42;;
45274;SDS011;31019;43.780;25.948;2024-02-23T14:14:16;56.42;;;52.67;;